sensor_id;sensor_type;location;lat;lon;timestamp;P1;durP1;ratioP1;P2;durP2;ratioP2
76593;SDS011;65482;50.240;14.302;2023-08-12T00:01:49;8.20;;;6.70;;
76593;SDS011;65482;50.240;14.302;2023-08-12T00:04:14;9.18;;;6.70;;
76593;SDS011;65482;50.240;14.302;2023-08-12T00:06:41;10.93;;;6.53;;
76593;SDS011;65482;50.240;14.302;2023-08-12T00:09:08;10.18;;;6.68;;
76593;SDS011;65482;50.240;14.302;2023-08-12T00:11:35;9.02;;;6.65;;
76593;SDS011;65482;50.240;14.302;2023-08-12T00:14:01;7.75;;;6.43;;
76593;SDS011;65482;50.240;14.302;2023-08-12T00:16:26;9.65;;;6.25;;
76593;SDS011;65482;50.240;14.302;2023-08-12T00:18:52;9.80;;;6.50;;
76593;SDS011;65482;50.240;14.302;2023-08-12T00:21:18;9.90;;;6.47;;
76593;SDS011;65482;50.240;14.302;2023-08-12T00:23:44;9.05;;;6.40;;
76593;SDS011;65482;50.240;14.302;2023-08-12T00:26:09;7.45;;;5.78;;
76593;SDS011;65482;50.240;14.302;2023-08-12T00:28:36;10.98;;;6.28;;
76593;SDS011;65482;50.240;14.302;2023-08-12T00:31:02;11.13;;;6.68;;
76593;SDS011;65482;50.240;14.302;2023-08-12T00:33:28;9.48;;;6.78;;
76593;SDS011;65482;50.240;14.302;2023-08-12T00:35:53;8.05;;;6.15;;
76593;SDS011;65482;50.240;14.302;2023-08-12T00:38:19;9.57;;;6.60;;
76593;SDS011;65482;50.240;14.302;2023-08-12T00:40:44;8.68;;;7.00;;
76593;SDS011;65482;50.240;14.302;2023-08-12T00:43:10;8.75;;;6.53;;
76593;SDS011;65482;50.240;14.302;2023-08-12T00:45:36;10.60;;;7.10;;
76593;SDS011;65482;50.240;14.302;2023-08-12T00:48:03;10.00;;;6.80;;
76593;SDS011;65482;50.240;14.302;2023-08-12T00:50:29;9.35;;;7.05;;
76593;SDS011;65482;50.240;14.302;2023-08-12T00:52:54;8.90;;;6.78;;
76593;SDS011;65482;50.240;14.302;2023-08-12T00:55:20;9.82;;;6.40;;
76593;SDS011;65482;50.240;14.302;2023-08-12T00:57:46;12.88;;;7.07;;
76593;SDS011;65482;50.240;14.302;2023-08-12T01:00:12;9.38;;;6.82;;
76593;SDS011;65482;50.240;14.302;2023-08-12T01:02:39;12.02;;;7.32;;
76593;SDS011;65482;50.240;14.302;2023-08-12T01:05:10;8.35;;;6.50;;
76593;SDS011;65482;50.240;14.302;2023-08-12T01:07:36;10.65;;;6.85;;
76593;SDS011;65482;50.240;14.302;2023-08-12T01:10:01;7.70;;;6.82;;
76593;SDS011;65482;50.240;14.302;2023-08-12T01:17:31;9.15;;;7.07;;
76593;SDS011;65482;50.240;14.302;2023-08-12T01:19:58;10.75;;;7.20;;
76593;SDS011;65482;50.240;14.302;2023-08-12T01:22:25;8.75;;;6.70;;
76593;SDS011;65482;50.240;14.302;2023-08-12T01:24:52;8.48;;;6.53;;
76593;SDS011;65482;50.240;14.302;2023-08-12T01:27:18;7.68;;;6.60;;
76593;SDS011;65482;50.240;14.302;2023-08-12T01:29:46;11.48;;;6.82;;
76593;SDS011;65482;50.240;14.302;2023-08-12T01:32:25;7.65;;;6.68;;
76593;SDS011;65482;50.240;14.302;2023-08-12T01:35:19;10.23;;;6.50;;
76593;SDS011;65482;50.240;14.302;2023-08-12T01:37:48;12.93;;;7.35;;
76593;SDS011;65482;50.240;14.302;2023-08-12T01:40:16;7.97;;;7.03;;
76593;SDS011;65482;50.240;14.302;2023-08-12T01:42:44;8.32;;;6.32;;
76593;SDS011;65482;50.240;14.302;2023-08-12T01:45:10;9.05;;;7.18;;
76593;SDS011;65482;50.240;14.302;2023-08-12T01:47:36;8.48;;;6.78;;
76593;SDS011;65482;50.240;14.302;2023-08-12T01:50:02;9.57;;;6.65;;
76593;SDS011;65482;50.240;14.302;2023-08-12T01:52:28;8.50;;;6.70;;
76593;SDS011;65482;50.240;14.302;2023-08-12T01:54:54;11.25;;;7.05;;
76593;SDS011;65482;50.240;14.302;2023-08-12T01:57:20;8.68;;;7.13;;
76593;SDS011;65482;50.240;14.302;2023-08-12T01:59:45;8.75;;;7.10;;
76593;SDS011;65482;50.240;14.302;2023-08-12T02:02:11;10.57;;;6.90;;
76593;SDS011;65482;50.240;14.302;2023-08-12T02:04:37;10.52;;;7.50;;
76593;SDS011;65482;50.240;14.302;2023-08-12T02:07:03;8.35;;;6.78;;
76593;SDS011;65482;50.240;14.302;2023-08-12T02:09:29;9.02;;;6.95;;
76593;SDS011;65482;50.240;14.302;2023-08-12T02:11:56;9.40;;;6.80;;
76593;SDS011;65482;50.240;14.302;2023-08-12T02:14:22;9.77;;;7.57;;
76593;SDS011;65482;50.240;14.302;2023-08-12T02:16:47;9.13;;;6.88;;
76593;SDS011;65482;50.240;14.302;2023-08-12T02:19:13;11.20;;;7.18;;
76593;SDS011;65482;50.240;14.302;2023-08-12T02:21:39;12.32;;;6.85;;
76593;SDS011;65482;50.240;14.302;2023-08-12T02:24:04;9.82;;;6.50;;
76593;SDS011;65482;50.240;14.302;2023-08-12T02:26:30;9.13;;;7.22;;
76593;SDS011;65482;50.240;14.302;2023-08-12T02:28:55;10.55;;;6.60;;
76593;SDS011;65482;50.240;14.302;2023-08-12T02:31:21;13.65;;;6.82;;
76593;SDS011;65482;50.240;14.302;2023-08-12T02:33:46;9.15;;;7.03;;
76593;SDS011;65482;50.240;14.302;2023-08-12T02:36:12;13.73;;;6.57;;
76593;SDS011;65482;50.240;14.302;2023-08-12T02:38:38;8.23;;;7.30;;
76593;SDS011;65482;50.240;14.302;2023-08-12T02:41:03;10.77;;;7.22;;
76593;SDS011;65482;50.240;14.302;2023-08-12T02:43:29;10.13;;;6.50;;
76593;SDS011;65482;50.240;14.302;2023-08-12T02:45:54;10.13;;;6.82;;
76593;SDS011;65482;50.240;14.302;2023-08-12T02:48:20;10.05;;;7.40;;
76593;SDS011;65482;50.240;14.302;2023-08-12T02:50:46;10.07;;;7.18;;
76593;SDS011;65482;50.240;14.302;2023-08-12T02:53:11;9.48;;;6.93;;
76593;SDS011;65482;50.240;14.302;2023-08-12T02:55:37;11.73;;;7.65;;
76593;SDS011;65482;50.240;14.302;2023-08-12T02:58:03;9.93;;;7.63;;
76593;SDS011;65482;50.240;14.302;2023-08-12T03:00:29;12.30;;;7.07;;
76593;SDS011;65482;50.240;14.302;2023-08-12T03:02:55;10.32;;;7.50;;
76593;SDS011;65482;50.240;14.302;2023-08-12T03:05:21;10.80;;;7.00;;
76593;SDS011;65482;50.240;14.302;2023-08-12T03:07:47;12.88;;;7.40;;
76593;SDS011;65482;50.240;14.302;2023-08-12T03:10:13;8.70;;;6.97;;
76593;SDS011;65482;50.240;14.302;2023-08-12T03:12:38;8.35;;;6.65;;
76593;SDS011;65482;50.240;14.302;2023-08-12T03:15:05;11.20;;;7.50;;
76593;SDS011;65482;50.240;14.302;2023-08-12T03:17:32;11.18;;;6.95;;
76593;SDS011;65482;50.240;14.302;2023-08-12T03:19:58;10.68;;;7.80;;
76593;SDS011;65482;50.240;14.302;2023-08-12T03:22:29;8.93;;;7.35;;
76593;SDS011;65482;50.240;14.302;2023-08-12T03:24:54;9.63;;;6.93;;
76593;SDS011;65482;50.240;14.302;2023-08-12T03:27:20;13.02;;;7.40;;
76593;SDS011;65482;50.240;14.302;2023-08-12T03:29:45;9.95;;;7.72;;
76593;SDS011;65482;50.240;14.302;2023-08-12T03:32:11;9.38;;;7.22;;
76593;SDS011;65482;50.240;14.302;2023-08-12T03:34:37;10.73;;;7.05;;
76593;SDS011;65482;50.240;14.302;2023-08-12T03:37:02;11.57;;;7.22;;
76593;SDS011;65482;50.240;14.302;2023-08-12T03:39:28;9.18;;;7.43;;
76593;SDS011;65482;50.240;14.302;2023-08-12T03:41:54;10.82;;;7.30;;
76593;SDS011;65482;50.240;14.302;2023-08-12T03:44:20;12.00;;;7.43;;
76593;SDS011;65482;50.240;14.302;2023-08-12T03:46:45;9.73;;;7.60;;
76593;SDS011;65482;50.240;14.302;2023-08-12T03:49:11;9.43;;;7.43;;
76593;SDS011;65482;50.240;14.302;2023-08-12T03:51:36;10.43;;;7.72;;
76593;SDS011;65482;50.240;14.302;2023-08-12T03:54:02;8.45;;;7.15;;
76593;SDS011;65482;50.240;14.302;2023-08-12T03:56:29;13.10;;;7.55;;
76593;SDS011;65482;50.240;14.302;2023-08-12T03:58:54;8.00;;;7.18;;
76593;SDS011;65482;50.240;14.302;2023-08-12T04:01:20;12.85;;;7.65;;
76593;SDS011;65482;50.240;14.302;2023-08-12T04:03:46;9.07;;;6.72;;
76593;SDS011;65482;50.240;14.302;2023-08-12T04:06:12;8.65;;;7.38;;
76593;SDS011;65482;50.240;14.302;2023-08-12T04:08:38;8.43;;;6.68;;
76593;SDS011;65482;50.240;14.302;2023-08-12T04:11:03;14.52;;;8.10;;
76593;SDS011;65482;50.240;14.302;2023-08-12T04:13:29;10.48;;;7.20;;
76593;SDS011;65482;50.240;14.302;2023-08-12T04:15:55;12.52;;;8.10;;
76593;SDS011;65482;50.240;14.302;2023-08-12T04:18:21;12.88;;;7.20;;
76593;SDS011;65482;50.240;14.302;2023-08-12T04:20:47;10.82;;;7.35;;
76593;SDS011;65482;50.240;14.302;2023-08-12T04:23:13;9.73;;;6.88;;
76593;SDS011;65482;50.240;14.302;2023-08-12T04:25:39;9.57;;;6.93;;
76593;SDS011;65482;50.240;14.302;2023-08-12T04:28:05;11.07;;;7.70;;
76593;SDS011;65482;50.240;14.302;2023-08-12T04:30:30;12.98;;;7.18;;
76593;SDS011;65482;50.240;14.302;2023-08-12T04:32:56;9.75;;;7.03;;
76593;SDS011;65482;50.240;14.302;2023-08-12T04:35:22;8.60;;;6.93;;
76593;SDS011;65482;50.240;14.302;2023-08-12T04:37:47;8.57;;;7.30;;
76593;SDS011;65482;50.240;14.302;2023-08-12T04:40:13;10.15;;;7.32;;
76593;SDS011;65482;50.240;14.302;2023-08-12T04:42:38;11.98;;;7.38;;
76593;SDS011;65482;50.240;14.302;2023-08-12T04:45:04;9.00;;;7.35;;
76593;SDS011;65482;50.240;14.302;2023-08-12T04:47:30;8.60;;;6.97;;
76593;SDS011;65482;50.240;14.302;2023-08-12T04:49:55;13.38;;;7.03;;
76593;SDS011;65482;50.240;14.302;2023-08-12T04:52:21;10.68;;;6.85;;
76593;SDS011;65482;50.240;14.302;2023-08-12T04:54:46;8.30;;;6.63;;
76593;SDS011;65482;50.240;14.302;2023-08-12T04:57:12;10.63;;;6.38;;
76593;SDS011;65482;50.240;14.302;2023-08-12T04:59:37;16.17;;;7.60;;
76593;SDS011;65482;50.240;14.302;2023-08-12T05:02:03;9.93;;;7.15;;
76593;SDS011;65482;50.240;14.302;2023-08-12T05:04:29;8.57;;;7.13;;
76593;SDS011;65482;50.240;14.302;2023-08-12T05:06:55;9.45;;;7.15;;
76593;SDS011;65482;50.240;14.302;2023-08-12T05:09:20;11.15;;;7.20;;
76593;SDS011;65482;50.240;14.302;2023-08-12T05:11:46;9.68;;;6.80;;
76593;SDS011;65482;50.240;14.302;2023-08-12T05:14:11;9.48;;;7.07;;
76593;SDS011;65482;50.240;14.302;2023-08-12T05:16:37;10.15;;;7.40;;
76593;SDS011;65482;50.240;14.302;2023-08-12T05:19:02;11.60;;;6.95;;
76593;SDS011;65482;50.240;14.302;2023-08-12T05:21:28;7.80;;;6.85;;
76593;SDS011;65482;50.240;14.302;2023-08-12T05:23:54;9.27;;;7.05;;
76593;SDS011;65482;50.240;14.302;2023-08-12T05:26:19;9.57;;;7.18;;
76593;SDS011;65482;50.240;14.302;2023-08-12T05:28:46;10.45;;;7.13;;
76593;SDS011;65482;50.240;14.302;2023-08-12T05:31:11;9.00;;;7.57;;
76593;SDS011;65482;50.240;14.302;2023-08-12T05:33:37;8.82;;;7.22;;
76593;SDS011;65482;50.240;14.302;2023-08-12T05:36:03;12.45;;;8.18;;
76593;SDS011;65482;50.240;14.302;2023-08-12T05:38:28;13.90;;;9.07;;
76593;SDS011;65482;50.240;14.302;2023-08-12T05:40:54;10.65;;;7.97;;
76593;SDS011;65482;50.240;14.302;2023-08-12T05:43:20;14.50;;;8.43;;
76593;SDS011;65482;50.240;14.302;2023-08-12T05:45:45;10.45;;;8.38;;
76593;SDS011;65482;50.240;14.302;2023-08-12T05:48:11;11.05;;;8.10;;
76593;SDS011;65482;50.240;14.302;2023-08-12T05:50:37;13.80;;;8.93;;
76593;SDS011;65482;50.240;14.302;2023-08-12T05:53:03;10.27;;;8.48;;
76593;SDS011;65482;50.240;14.302;2023-08-12T05:55:28;8.93;;;7.88;;
76593;SDS011;65482;50.240;14.302;2023-08-12T05:57:54;10.63;;;8.35;;
76593;SDS011;65482;50.240;14.302;2023-08-12T06:00:19;11.05;;;9.18;;
76593;SDS011;65482;50.240;14.302;2023-08-12T06:02:45;12.25;;;8.38;;
76593;SDS011;65482;50.240;14.302;2023-08-12T06:05:10;11.27;;;8.35;;
76593;SDS011;65482;50.240;14.302;2023-08-12T06:07:36;20.38;;;9.13;;
76593;SDS011;65482;50.240;14.302;2023-08-12T06:10:02;12.63;;;9.25;;
76593;SDS011;65482;50.240;14.302;2023-08-12T06:12:28;12.95;;;8.57;;
76593;SDS011;65482;50.240;14.302;2023-08-12T06:14:54;13.02;;;8.77;;
76593;SDS011;65482;50.240;14.302;2023-08-12T06:17:19;12.27;;;8.63;;
76593;SDS011;65482;50.240;14.302;2023-08-12T06:19:45;11.50;;;8.35;;
76593;SDS011;65482;50.240;14.302;2023-08-12T06:22:10;12.38;;;8.85;;
76593;SDS011;65482;50.240;14.302;2023-08-12T06:24:36;9.82;;;8.63;;
76593;SDS011;65482;50.240;14.302;2023-08-12T06:27:02;13.30;;;8.63;;
76593;SDS011;65482;50.240;14.302;2023-08-12T06:29:27;11.63;;;8.18;;
76593;SDS011;65482;50.240;14.302;2023-08-12T06:31:53;11.75;;;8.18;;
76593;SDS011;65482;50.240;14.302;2023-08-12T06:34:18;11.45;;;8.20;;
76593;SDS011;65482;50.240;14.302;2023-08-12T06:36:44;10.95;;;8.30;;
76593;SDS011;65482;50.240;14.302;2023-08-12T06:39:09;11.35;;;8.57;;
76593;SDS011;65482;50.240;14.302;2023-08-12T06:41:35;9.02;;;7.93;;
76593;SDS011;65482;50.240;14.302;2023-08-12T06:44:01;10.65;;;7.95;;
76593;SDS011;65482;50.240;14.302;2023-08-12T06:46:26;11.18;;;8.20;;
76593;SDS011;65482;50.240;14.302;2023-08-12T06:48:53;11.02;;;8.32;;
76593;SDS011;65482;50.240;14.302;2023-08-12T06:51:19;13.52;;;8.32;;
76593;SDS011;65482;50.240;14.302;2023-08-12T06:53:44;11.15;;;8.43;;
76593;SDS011;65482;50.240;14.302;2023-08-12T06:56:10;10.45;;;7.72;;
76593;SDS011;65482;50.240;14.302;2023-08-12T06:58:35;11.30;;;8.40;;
76593;SDS011;65482;50.240;14.302;2023-08-12T07:01:01;11.90;;;8.07;;
76593;SDS011;65482;50.240;14.302;2023-08-12T07:03:26;12.32;;;7.40;;
76593;SDS011;65482;50.240;14.302;2023-08-12T07:05:55;7.85;;;6.43;;
76593;SDS011;65482;50.240;14.302;2023-08-12T07:08:20;9.45;;;7.07;;
76593;SDS011;65482;50.240;14.302;2023-08-12T07:10:46;9.35;;;7.00;;
76593;SDS011;65482;50.240;14.302;2023-08-12T07:13:11;8.75;;;7.30;;
76593;SDS011;65482;50.240;14.302;2023-08-12T07:15:37;10.82;;;6.78;;
76593;SDS011;65482;50.240;14.302;2023-08-12T07:18:02;9.57;;;6.25;;
76593;SDS011;65482;50.240;14.302;2023-08-12T07:20:28;8.35;;;5.90;;
76593;SDS011;65482;50.240;14.302;2023-08-12T07:22:54;9.02;;;5.70;;
76593;SDS011;65482;50.240;14.302;2023-08-12T07:25:19;7.90;;;5.60;;
76593;SDS011;65482;50.240;14.302;2023-08-12T07:27:45;8.02;;;5.35;;
76593;SDS011;65482;50.240;14.302;2023-08-12T07:30:11;7.75;;;5.03;;
76593;SDS011;65482;50.240;14.302;2023-08-12T07:32:37;7.07;;;4.88;;
76593;SDS011;65482;50.240;14.302;2023-08-12T07:35:03;10.23;;;4.90;;
76593;SDS011;65482;50.240;14.302;2023-08-12T07:37:31;8.38;;;5.03;;
76593;SDS011;65482;50.240;14.302;2023-08-12T07:39:57;8.02;;;4.63;;
76593;SDS011;65482;50.240;14.302;2023-08-12T07:42:23;4.90;;;4.40;;
76593;SDS011;65482;50.240;14.302;2023-08-12T07:44:48;5.85;;;4.65;;
76593;SDS011;65482;50.240;14.302;2023-08-12T07:47:14;9.75;;;4.75;;
76593;SDS011;65482;50.240;14.302;2023-08-12T07:49:41;6.05;;;4.72;;
76593;SDS011;65482;50.240;14.302;2023-08-12T07:52:06;5.82;;;4.88;;
76593;SDS011;65482;50.240;14.302;2023-08-12T07:54:32;7.85;;;4.43;;
76593;SDS011;65482;50.240;14.302;2023-08-12T07:56:58;7.40;;;4.80;;
76593;SDS011;65482;50.240;14.302;2023-08-12T07:59:23;6.60;;;4.63;;
76593;SDS011;65482;50.240;14.302;2023-08-12T08:01:49;5.60;;;4.53;;
76593;SDS011;65482;50.240;14.302;2023-08-12T08:04:15;7.30;;;5.10;;
76593;SDS011;65482;50.240;14.302;2023-08-12T08:06:40;7.50;;;4.18;;
76593;SDS011;65482;50.240;14.302;2023-08-12T08:09:06;6.05;;;4.45;;
76593;SDS011;65482;50.240;14.302;2023-08-12T08:11:32;6.65;;;4.15;;
76593;SDS011;65482;50.240;14.302;2023-08-12T08:13:59;6.65;;;3.92;;
76593;SDS011;65482;50.240;14.302;2023-08-12T08:16:25;6.88;;;4.30;;
76593;SDS011;65482;50.240;14.302;2023-08-12T08:18:51;4.43;;;3.63;;
76593;SDS011;65482;50.240;14.302;2023-08-12T08:21:16;4.22;;;3.80;;
76593;SDS011;65482;50.240;14.302;2023-08-12T08:23:42;7.20;;;4.30;;
76593;SDS011;65482;50.240;14.302;2023-08-12T08:26:08;7.80;;;4.43;;
76593;SDS011;65482;50.240;14.302;2023-08-12T08:28:34;4.47;;;3.42;;
76593;SDS011;65482;50.240;14.302;2023-08-12T08:31:00;7.20;;;3.55;;
76593;SDS011;65482;50.240;14.302;2023-08-12T08:33:26;7.65;;;3.53;;
76593;SDS011;65482;50.240;14.302;2023-08-12T08:35:52;4.63;;;3.40;;
76593;SDS011;65482;50.240;14.302;2023-08-12T08:38:19;4.10;;;3.53;;
76593;SDS011;65482;50.240;14.302;2023-08-12T08:40:44;6.72;;;3.35;;
76593;SDS011;65482;50.240;14.302;2023-08-12T08:43:10;6.93;;;3.75;;
76593;SDS011;65482;50.240;14.302;2023-08-12T08:45:40;8.30;;;3.05;;
76593;SDS011;65482;50.240;14.302;2023-08-12T08:48:09;5.68;;;3.17;;
76593;SDS011;65482;50.240;14.302;2023-08-12T08:50:36;6.30;;;3.13;;
76593;SDS011;65482;50.240;14.302;2023-08-12T08:53:02;4.35;;;3.22;;
76593;SDS011;65482;50.240;14.302;2023-08-12T08:55:31;3.85;;;3.03;;
76593;SDS011;65482;50.240;14.302;2023-08-12T08:57:57;5.70;;;3.50;;
76593;SDS011;65482;50.240;14.302;2023-08-12T09:00:23;3.72;;;3.05;;
76593;SDS011;65482;50.240;14.302;2023-08-12T09:02:50;4.25;;;2.90;;
76593;SDS011;65482;50.240;14.302;2023-08-12T09:05:18;4.95;;;2.83;;
76593;SDS011;65482;50.240;14.302;2023-08-12T09:07:46;6.20;;;2.92;;
76593;SDS011;65482;50.240;14.302;2023-08-12T09:10:12;4.90;;;2.97;;
76593;SDS011;65482;50.240;14.302;2023-08-12T09:12:38;4.35;;;2.63;;
76593;SDS011;65482;50.240;14.302;2023-08-12T09:15:05;4.80;;;3.00;;
76593;SDS011;65482;50.240;14.302;2023-08-12T09:17:32;4.20;;;3.10;;
76593;SDS011;65482;50.240;14.302;2023-08-12T09:19:58;6.47;;;2.75;;
76593;SDS011;65482;50.240;14.302;2023-08-12T09:22:24;3.08;;;2.70;;
76593;SDS011;65482;50.240;14.302;2023-08-12T09:24:55;5.25;;;2.90;;
76593;SDS011;65482;50.240;14.302;2023-08-12T09:27:22;3.92;;;2.70;;
76593;SDS011;65482;50.240;14.302;2023-08-12T09:29:47;6.22;;;2.95;;
76593;SDS011;65482;50.240;14.302;2023-08-12T09:32:17;3.97;;;2.55;;
76593;SDS011;65482;50.240;14.302;2023-08-12T09:34:47;3.83;;;2.60;;
76593;SDS011;65482;50.240;14.302;2023-08-12T09:37:17;5.88;;;2.65;;
76593;SDS011;65482;50.240;14.302;2023-08-12T09:39:43;2.70;;;2.20;;
76593;SDS011;65482;50.240;14.302;2023-08-12T09:42:11;3.13;;;2.00;;
76593;SDS011;65482;50.240;14.302;2023-08-12T09:44:37;3.03;;;2.10;;
76593;SDS011;65482;50.240;14.302;2023-08-12T09:47:03;2.88;;;1.90;;
76593;SDS011;65482;50.240;14.302;2023-08-12T09:49:29;3.35;;;2.17;;
76593;SDS011;65482;50.240;14.302;2023-08-12T09:51:55;2.95;;;1.92;;
76593;SDS011;65482;50.240;14.302;2023-08-12T09:54:22;3.45;;;1.98;;
76593;SDS011;65482;50.240;14.302;2023-08-12T09:56:51;3.63;;;1.73;;
76593;SDS011;65482;50.240;14.302;2023-08-12T09:59:22;3.65;;;1.80;;
76593;SDS011;65482;50.240;14.302;2023-08-12T10:01:49;2.83;;;1.77;;
76593;SDS011;65482;50.240;14.302;2023-08-12T10:04:17;2.63;;;1.70;;
76593;SDS011;65482;50.240;14.302;2023-08-12T10:06:44;2.67;;;1.67;;
76593;SDS011;65482;50.240;14.302;2023-08-12T10:09:10;3.42;;;1.90;;
76593;SDS011;65482;50.240;14.302;2023-08-12T10:11:37;2.83;;;1.80;;
76593;SDS011;65482;50.240;14.302;2023-08-12T10:14:03;2.08;;;1.52;;
76593;SDS011;65482;50.240;14.302;2023-08-12T10:16:30;2.63;;;1.77;;
76593;SDS011;65482;50.240;14.302;2023-08-12T10:18:56;2.25;;;1.60;;
76593;SDS011;65482;50.240;14.302;2023-08-12T10:21:23;3.80;;;1.73;;
76593;SDS011;65482;50.240;14.302;2023-08-12T10:23:51;6.43;;;1.80;;
76593;SDS011;65482;50.240;14.302;2023-08-12T10:26:27;3.05;;;1.90;;
76593;SDS011;65482;50.240;14.302;2023-08-12T10:28:54;3.95;;;1.65;;
76593;SDS011;65482;50.240;14.302;2023-08-12T10:31:19;4.15;;;1.70;;
76593;SDS011;65482;50.240;14.302;2023-08-12T10:33:45;2.47;;;1.65;;
76593;SDS011;65482;50.240;14.302;2023-08-12T10:36:15;3.33;;;2.05;;
76593;SDS011;65482;50.240;14.302;2023-08-12T10:38:44;2.85;;;2.15;;
76593;SDS011;65482;50.240;14.302;2023-08-12T10:43:52;4.00;;;1.45;;
76593;SDS011;65482;50.240;14.302;2023-08-12T10:46:23;2.40;;;2.00;;
76593;SDS011;65482;50.240;14.302;2023-08-12T10:59:50;2.22;;;1.73;;
76593;SDS011;65482;50.240;14.302;2023-08-12T11:04:44;2.50;;;1.73;;
76593;SDS011;65482;50.240;14.302;2023-08-12T11:07:17;4.18;;;2.00;;
76593;SDS011;65482;50.240;14.302;2023-08-12T11:09:44;2.15;;;1.77;;
76593;SDS011;65482;50.240;14.302;2023-08-12T11:12:10;3.00;;;1.90;;
76593;SDS011;65482;50.240;14.302;2023-08-12T11:14:54;4.07;;;2.10;;
76593;SDS011;65482;50.240;14.302;2023-08-12T11:17:34;2.67;;;1.90;;
76593;SDS011;65482;50.240;14.302;2023-08-12T11:20:01;2.00;;;1.80;;
76593;SDS011;65482;50.240;14.302;2023-08-12T11:22:32;3.05;;;1.90;;
76593;SDS011;65482;50.240;14.302;2023-08-12T11:25:00;4.00;;;1.95;;
76593;SDS011;65482;50.240;14.302;2023-08-12T11:27:26;5.03;;;1.88;;
76593;SDS011;65482;50.240;14.302;2023-08-12T11:29:52;3.58;;;2.00;;
76593;SDS011;65482;50.240;14.302;2023-08-12T11:32:18;5.78;;;2.15;;
76593;SDS011;65482;50.240;14.302;2023-08-12T11:34:44;2.50;;;1.88;;
76593;SDS011;65482;50.240;14.302;2023-08-12T11:37:10;2.80;;;2.13;;
76593;SDS011;65482;50.240;14.302;2023-08-12T11:39:36;4.45;;;2.00;;
76593;SDS011;65482;50.240;14.302;2023-08-12T11:42:02;2.78;;;2.05;;
76593;SDS011;65482;50.240;14.302;2023-08-12T11:44:28;2.38;;;1.70;;
76593;SDS011;65482;50.240;14.302;2023-08-12T11:46:54;3.50;;;1.92;;
76593;SDS011;65482;50.240;14.302;2023-08-12T11:49:19;3.83;;;1.67;;
76593;SDS011;65482;50.240;14.302;2023-08-12T11:51:45;3.13;;;1.70;;
76593;SDS011;65482;50.240;14.302;2023-08-12T11:54:14;2.70;;;1.95;;
76593;SDS011;65482;50.240;14.302;2023-08-12T11:56:40;3.58;;;1.95;;
76593;SDS011;65482;50.240;14.302;2023-08-12T11:59:07;2.42;;;2.10;;
76593;SDS011;65482;50.240;14.302;2023-08-12T12:01:32;2.42;;;1.60;;
76593;SDS011;65482;50.240;14.302;2023-08-12T12:04:01;3.53;;;1.80;;
76593;SDS011;65482;50.240;14.302;2023-08-12T12:06:30;6.15;;;1.80;;
76593;SDS011;65482;50.240;14.302;2023-08-12T12:08:59;2.47;;;1.70;;
76593;SDS011;65482;50.240;14.302;2023-08-12T12:11:27;2.10;;;1.70;;
76593;SDS011;65482;50.240;14.302;2023-08-12T12:13:53;3.28;;;1.70;;
76593;SDS011;65482;50.240;14.302;2023-08-12T12:16:18;3.00;;;1.70;;
76593;SDS011;65482;50.240;14.302;2023-08-12T12:18:44;3.05;;;1.60;;
76593;SDS011;65482;50.240;14.302;2023-08-12T12:21:09;3.55;;;1.85;;
76593;SDS011;65482;50.240;14.302;2023-08-12T12:23:36;6.55;;;1.92;;
76593;SDS011;65482;50.240;14.302;2023-08-12T12:26:03;2.47;;;1.40;;
76593;SDS011;65482;50.240;14.302;2023-08-12T12:28:29;3.08;;;1.45;;
76593;SDS011;65482;50.240;14.302;2023-08-12T12:30:57;2.30;;;1.60;;
76593;SDS011;65482;50.240;14.302;2023-08-12T12:33:22;2.60;;;1.40;;
76593;SDS011;65482;50.240;14.302;2023-08-12T12:35:48;2.88;;;1.50;;
76593;SDS011;65482;50.240;14.302;2023-08-12T12:38:13;2.80;;;1.45;;
76593;SDS011;65482;50.240;14.302;2023-08-12T12:40:39;3.95;;;1.45;;
76593;SDS011;65482;50.240;14.302;2023-08-12T12:43:04;4.05;;;1.55;;
76593;SDS011;65482;50.240;14.302;2023-08-12T12:45:30;4.35;;;1.60;;
76593;SDS011;65482;50.240;14.302;2023-08-12T12:47:55;2.15;;;1.40;;
76593;SDS011;65482;50.240;14.302;2023-08-12T12:50:21;1.90;;;1.48;;
76593;SDS011;65482;50.240;14.302;2023-08-12T12:52:46;2.47;;;1.70;;
76593;SDS011;65482;50.240;14.302;2023-08-12T12:55:12;3.47;;;1.48;;
76593;SDS011;65482;50.240;14.302;2023-08-12T12:57:38;1.60;;;1.40;;
76593;SDS011;65482;50.240;14.302;2023-08-12T13:00:03;2.25;;;1.42;;
76593;SDS011;65482;50.240;14.302;2023-08-12T13:02:29;2.58;;;1.50;;
76593;SDS011;65482;50.240;14.302;2023-08-12T13:04:55;2.78;;;1.40;;
76593;SDS011;65482;50.240;14.302;2023-08-12T13:07:21;1.80;;;1.30;;
76593;SDS011;65482;50.240;14.302;2023-08-12T13:09:46;5.63;;;1.50;;
76593;SDS011;65482;50.240;14.302;2023-08-12T13:12:12;4.25;;;1.38;;
76593;SDS011;65482;50.240;14.302;2023-08-12T13:14:38;1.23;;;1.13;;
76593;SDS011;65482;50.240;14.302;2023-08-12T13:17:03;2.83;;;1.27;;
76593;SDS011;65482;50.240;14.302;2023-08-12T13:19:29;2.72;;;1.30;;
76593;SDS011;65482;50.240;14.302;2023-08-12T13:21:54;3.95;;;1.42;;
76593;SDS011;65482;50.240;14.302;2023-08-12T13:24:20;2.60;;;1.90;;
76593;SDS011;65482;50.240;14.302;2023-08-12T13:26:45;2.72;;;1.58;;
76593;SDS011;65482;50.240;14.302;2023-08-12T13:29:11;2.88;;;1.38;;
76593;SDS011;65482;50.240;14.302;2023-08-12T13:31:36;2.25;;;1.50;;
76593;SDS011;65482;50.240;14.302;2023-08-12T13:34:02;1.90;;;1.20;;
76593;SDS011;65482;50.240;14.302;2023-08-12T13:36:28;5.50;;;1.40;;
76593;SDS011;65482;50.240;14.302;2023-08-12T13:38:55;3.50;;;1.30;;
76593;SDS011;65482;50.240;14.302;2023-08-12T13:41:21;4.35;;;1.35;;
76593;SDS011;65482;50.240;14.302;2023-08-12T13:43:47;4.13;;;1.40;;
76593;SDS011;65482;50.240;14.302;2023-08-12T13:46:12;1.55;;;1.40;;
76593;SDS011;65482;50.240;14.302;2023-08-12T13:48:38;2.83;;;1.42;;
76593;SDS011;65482;50.240;14.302;2023-08-12T13:51:04;2.10;;;1.35;;
76593;SDS011;65482;50.240;14.302;2023-08-12T13:53:29;1.88;;;1.40;;
76593;SDS011;65482;50.240;14.302;2023-08-12T13:55:55;2.63;;;1.50;;
76593;SDS011;65482;50.240;14.302;2023-08-12T13:58:21;2.65;;;1.50;;
76593;SDS011;65482;50.240;14.302;2023-08-12T14:00:46;1.45;;;1.15;;
76593;SDS011;65482;50.240;14.302;2023-08-12T14:03:13;4.00;;;1.50;;
76593;SDS011;65482;50.240;14.302;2023-08-12T14:05:38;2.72;;;1.30;;
76593;SDS011;65482;50.240;14.302;2023-08-12T14:08:04;2.28;;;1.33;;
76593;SDS011;65482;50.240;14.302;2023-08-12T14:10:30;1.98;;;1.30;;
76593;SDS011;65482;50.240;14.302;2023-08-12T14:12:56;2.28;;;1.30;;
76593;SDS011;65482;50.240;14.302;2023-08-12T14:15:22;3.10;;;1.40;;
76593;SDS011;65482;50.240;14.302;2023-08-12T14:17:48;1.85;;;1.30;;
76593;SDS011;65482;50.240;14.302;2023-08-12T14:20:14;2.08;;;1.33;;
76593;SDS011;65482;50.240;14.302;2023-08-12T14:22:40;1.60;;;1.50;;
76593;SDS011;65482;50.240;14.302;2023-08-12T14:25:08;2.33;;;1.30;;
76593;SDS011;65482;50.240;14.302;2023-08-12T14:27:36;6.28;;;1.33;;
76593;SDS011;65482;50.240;14.302;2023-08-12T14:30:01;2.28;;;1.30;;
76593;SDS011;65482;50.240;14.302;2023-08-12T14:32:28;2.17;;;1.20;;
76593;SDS011;65482;50.240;14.302;2023-08-12T14:34:53;1.48;;;1.20;;
76593;SDS011;65482;50.240;14.302;2023-08-12T14:37:19;1.65;;;1.05;;
76593;SDS011;65482;50.240;14.302;2023-08-12T14:39:44;1.48;;;1.20;;
76593;SDS011;65482;50.240;14.302;2023-08-12T14:42:10;2.22;;;1.20;;
76593;SDS011;65482;50.240;14.302;2023-08-12T14:44:36;1.40;;;1.20;;
76593;SDS011;65482;50.240;14.302;2023-08-12T14:47:02;1.67;;;1.20;;